createdAt,value
2019-05-03T00:02:57.201Z,100166.67
2019-05-03T00:07:02.618Z,100166.58
2019-05-03T00:11:06.026Z,100164.64
2019-05-03T00:15:29.785Z,100167.72
2019-05-03T00:19:33.269Z,100165.05
2019-05-03T00:23:37.065Z,100174.27
2019-05-03T00:27:42.639Z,100182.72
2019-05-03T00:31:45.916Z,100180.89
2019-05-03T00:35:51.967Z,100178.47
2019-05-03T00:40:01.934Z,100188.38
2019-05-03T00:44:05.577Z,100187.20
2019-05-03T00:48:09.404Z,100193.39
2019-05-03T00:52:12.996Z,100191.72
2019-05-03T00:56:16.472Z,100190.18
2019-05-03T01:00:21.749Z,100182.06
2019-05-03T01:04:25.149Z,100188.73
2019-05-03T01:08:28.900Z,100181.91
2019-05-03T01:12:32.630Z,100187.11
2019-05-03T01:16:36.120Z,100191.69
2019-05-03T01:20:39.954Z,100187.20
2019-05-03T01:24:43.476Z,100197.41
2019-05-03T01:28:47.218Z,100192.95
2019-05-03T01:32:52.390Z,100196.36
2019-05-03T01:36:55.965Z,100190.75
2019-05-03T01:41:01.766Z,100199.72
2019-05-03T01:45:06.564Z,100196.94
2019-05-03T01:49:12.274Z,100196.57
2019-05-03T01:53:23.811Z,100204.67
2019-05-03T01:57:27.638Z,100202.78
2019-05-03T02:01:35.946Z,100203.48
2019-05-03T02:05:44.011Z,100206.03
2019-05-03T02:09:47.887Z,100204.86
2019-05-03T02:13:52.221Z,100206.77
2019-05-03T02:17:55.859Z,100220.61
2019-05-03T02:21:59.662Z,100219.69
2019-05-03T02:26:03.404Z,100214.41
2019-05-03T02:30:07.254Z,100216.86
2019-05-03T02:34:12.566Z,100218.58
2019-05-03T02:38:16.234Z,100223.66
2019-05-03T02:42:19.988Z,100223.37
2019-05-03T02:46:25.601Z,100226.09
2019-05-03T02:50:29.265Z,100228.26
2019-05-03T02:54:35.114Z,100232.35
2019-05-03T02:58:38.633Z,100225.27
2019-05-03T03:02:42.249Z,100228.62
2019-05-03T03:06:47.721Z,100231.78
2019-05-03T03:10:55.582Z,100233.06
2019-05-03T03:15:01.564Z,100244.70
2019-05-03T03:19:06.589Z,100245.58
2019-05-03T03:23:17.809Z,100251.03
2019-05-03T03:27:21.971Z,100258.56
2019-05-03T03:31:31.620Z,100257.87
2019-05-03T03:35:38.567Z,100251.77
2019-05-03T03:39:45.552Z,100262.69
2019-05-03T03:43:51.262Z,100253.17
2019-05-03T03:47:56.264Z,100267.97
2019-05-03T03:52:01.265Z,100271.95
2019-05-03T03:56:05.725Z,100277.50
2019-05-03T04:00:10.254Z,100270.03
2019-05-03T04:04:16.046Z,100276.25
2019-05-03T04:08:19.380Z,100284.17
2019-05-03T04:12:26.150Z,100294.37
2019-05-03T04:16:29.773Z,100300.83
2019-05-03T04:20:36.047Z,100306.34
2019-05-03T04:24:39.753Z,100305.07
2019-05-03T04:28:45.365Z,100310.24
2019-05-03T04:32:50.291Z,100322.97
2019-05-03T04:36:55.468Z,100326.22
2019-05-03T04:40:59.139Z,100332.89
2019-05-03T04:45:05.650Z,100338.33
2019-05-03T04:49:08.342Z,100340.81
2019-05-03T04:53:15.946Z,100341.41
2019-05-03T04:57:34.310Z,100341.41
2019-05-03T05:01:22.856Z,100345.72
2019-05-03T05:05:26.580Z,100350.06
2019-05-03T05:09:30.105Z,100361.53
2019-05-03T05:13:35.619Z,100359.36
2019-05-03T05:17:40.594Z,100360.73
2019-05-03T05:21:46.067Z,100360.00
2019-05-03T05:25:51.214Z,100363.55
2019-05-03T05:29:55.421Z,100364.34
2019-05-03T05:33:59.244Z,100373.81
2019-05-03T05:38:04.658Z,100378.47
2019-05-03T05:42:08.323Z,100376.91
2019-05-03T05:46:11.809Z,100372.79
2019-05-03T05:50:17.270Z,100374.56
2019-05-03T05:54:21.096Z,100373.69
2019-05-03T05:58:41.640Z,100376.22
2019-05-03T06:02:45.431Z,100374.42
2019-05-03T06:06:50.553Z,100382.56
2019-05-03T06:10:58.120Z,100378.23
2019-05-03T06:15:04.752Z,100381.12
2019-05-03T06:19:22.282Z,100381.33
2019-05-03T06:23:27.468Z,100383.22
2019-05-03T06:27:34.606Z,100389.64
2019-05-03T06:31:56.354Z,100391.25
2019-05-03T06:36:00.214Z,100392.05
2019-05-03T06:40:06.177Z,100387.61
2019-05-03T06:44:09.711Z,100385.18
2019-05-03T06:48:15.785Z,100392.45
2019-05-03T06:52:19.865Z,100399.10
2019-05-03T06:56:28.980Z,100391.60
2019-05-03T07:00:49.582Z,100395.30
2019-05-03T07:04:56.200Z,100391.02
2019-05-03T07:09:07.417Z,100393.16
2019-05-03T07:13:10.909Z,100391.91
2019-05-03T07:17:14.612Z,100390.34
2019-05-03T07:21:18.092Z,100392.16
2019-05-03T07:25:21.601Z,100393.20
2019-05-03T07:29:25.651Z,100384.57
2019-05-03T07:33:31.163Z,100374.69
2019-05-03T07:37:34.969Z,100372.27
2019-05-03T07:41:38.525Z,100390.37
2019-05-03T07:45:42.117Z,100383.09
2019-05-03T07:49:45.920Z,100384.93
2019-05-03T07:53:49.735Z,100367.37
2019-05-03T07:57:57.544Z,100372.11
2019-05-03T08:02:01.056Z,100371.49
2019-05-03T08:06:05.460Z,100356.02
2019-05-03T08:10:09.625Z,100357.14
2019-05-03T08:14:16.091Z,100364.11
2019-05-03T08:18:18.791Z,100371.97
2019-05-03T08:22:22.612Z,100354.95
2019-05-03T08:26:26.203Z,100373.92
2019-05-03T08:30:35.406Z,100376.43
2019-05-03T08:34:46.438Z,100367.88
2019-05-03T08:38:50.270Z,100366.39
2019-05-03T08:42:54.984Z,100353.80
2019-05-03T08:46:59.529Z,100354.94
2019-05-03T08:51:04.532Z,100380.03
2019-05-03T08:55:08.259Z,100380.78
2019-05-03T08:59:26.187Z,100378.33
2019-05-03T09:03:18.751Z,100378.75
2019-05-03T09:07:22.535Z,100365.63
2019-05-03T09:11:33.594Z,100371.41
2019-05-03T09:15:31.272Z,100367.75
2019-05-03T09:19:35.041Z,100368.67
2019-05-03T09:23:38.839Z,100373.59
2019-05-03T09:27:44.605Z,100376.00
2019-05-03T09:31:48.082Z,100376.00
2019-05-03T09:35:51.559Z,100373.73
2019-05-03T09:39:55.328Z,100366.41
2019-05-03T09:43:59.260Z,100362.05
2019-05-03T09:48:05.472Z,100363.80
2019-05-03T09:52:08.797Z,100351.52
2019-05-03T09:56:12.377Z,100351.81
2019-05-03T10:00:17.555Z,100352.72
2019-05-03T10:04:21.051Z,100360.34
2019-05-03T10:08:25.454Z,100355.77
2019-05-03T10:12:29.131Z,100351.48
2019-05-03T10:16:35.109Z,100359.37
2019-05-03T10:20:38.662Z,100363.44
2019-05-03T10:24:42.458Z,100355.25
2019-05-03T10:28:45.941Z,100344.34
2019-05-03T10:32:51.754Z,100348.59
2019-05-03T10:36:55.341Z,100351.22
2019-05-03T10:40:58.946Z,100393.66
2019-05-03T10:45:04.506Z,100410.06
2019-05-03T10:49:07.634Z,100404.63
2019-05-03T10:53:15.769Z,100384.61
2019-05-03T10:57:21.208Z,100381.00
2019-05-03T11:01:26.368Z,100360.08
2019-05-03T11:05:29.910Z,100353.38
2019-05-03T11:09:47.937Z,100351.95
2019-05-03T11:13:38.607Z,100354.66
2019-05-03T11:17:42.451Z,100363.19
2019-05-03T11:21:45.946Z,100378.09
2019-05-03T11:25:49.498Z,100374.28
2019-05-03T11:29:55.448Z,100380.05
2019-05-03T11:34:00.298Z,100390.05
2019-05-03T11:38:11.582Z,100394.14
2019-05-03T11:42:18.411Z,100396.64
2019-05-03T11:46:21.060Z,100401.28
2019-05-03T11:50:25.341Z,100416.95
2019-05-03T11:54:29.094Z,100407.34
2019-05-03T11:58:34.253Z,100403.58
2019-05-03T12:02:39.508Z,100400.81
2019-05-03T12:06:42.990Z,100400.95
2019-05-03T12:10:55.439Z,100386.80
2019-05-03T12:14:52.021Z,100383.04
2019-05-03T12:18:56.320Z,100364.95
2019-05-03T12:23:01.184Z,100366.55
2019-05-03T12:27:05.572Z,100358.41
2019-05-03T12:31:24.345Z,100356.92
2019-05-03T12:35:15.397Z,100354.44
2019-05-03T12:39:26.814Z,100349.28
2019-05-03T12:43:25.635Z,100351.41
2019-05-03T12:47:29.691Z,100333.57
2019-05-03T12:51:34.508Z,100332.13
2019-05-03T12:55:38.173Z,100339.19
2019-05-03T12:59:49.159Z,100331.61
2019-05-03T13:03:57.384Z,100336.84
2019-05-03T13:08:20.586Z,100342.50
2019-05-03T13:12:25.730Z,100340.55
2019-05-03T13:16:29.517Z,100339.74
2019-05-03T13:20:35.858Z,100333.13
2019-05-03T13:24:38.557Z,100332.98
2019-05-03T13:28:42.508Z,100329.19
2019-05-03T13:32:45.987Z,100327.69
2019-05-03T13:36:49.877Z,100332.11
2019-05-03T13:40:54.347Z,100328.44
2019-05-03T13:44:58.139Z,100320.84
2019-05-03T13:49:02.081Z,100310.19
2019-05-03T13:53:06.480Z,100314.45
2019-05-03T13:57:10.266Z,100313.13
2019-05-03T14:01:14.747Z,100312.56
2019-05-03T14:05:18.337Z,100308.33
2019-05-03T14:09:22.138Z,100288.36
2019-05-03T14:13:26.291Z,100295.73
2019-05-03T14:17:29.768Z,100292.41
2019-05-03T14:21:37.990Z,100291.05
2019-05-03T14:25:41.474Z,100280.81
2019-05-03T14:29:45.417Z,100282.98
2019-05-03T14:33:49.347Z,100283.85
2019-05-03T14:37:54.932Z,100277.00
2019-05-03T14:41:58.836Z,100294.05
2019-05-03T14:46:02.426Z,100291.73
2019-05-03T14:50:06.778Z,100283.10
2019-05-03T14:54:10.633Z,100285.17
2019-05-03T14:58:27.521Z,100279.07
2019-05-03T15:02:43.664Z,100274.39
2019-05-03T15:06:40.765Z,100272.49
2019-05-03T15:10:45.605Z,100271.30
2019-05-03T15:14:49.222Z,100270.38
2019-05-03T15:18:54.779Z,100271.51
2019-05-03T15:22:58.208Z,100262.69
2019-05-03T15:27:02.033Z,100266.34
2019-05-03T15:31:05.951Z,100258.41
2019-05-03T15:35:09.878Z,100253.43
2019-05-03T15:39:15.248Z,100250.34
2019-05-03T15:43:29.486Z,100250.44
2019-05-03T15:47:38.017Z,100244.36
2019-05-03T15:51:41.836Z,100244.25
2019-05-03T15:55:45.327Z,100249.09
2019-05-03T15:59:48.806Z,100248.72
2019-05-03T16:03:52.297Z,100255.02
2019-05-03T16:07:56.093Z,100240.51
2019-05-03T16:11:59.580Z,100242.48
2019-05-03T16:16:04.324Z,100240.33
2019-05-03T16:20:08.225Z,100241.08
2019-05-03T16:24:11.708Z,100241.18
2019-05-03T16:28:24.735Z,100241.92
2019-05-03T16:32:28.083Z,100248.84
2019-05-03T16:36:31.562Z,100252.62
2019-05-03T16:40:35.182Z,100254.86
2019-05-03T16:44:38.950Z,100261.09
2019-05-03T16:48:44.629Z,100274.19
2019-05-03T16:52:47.906Z,100257.08
2019-05-03T16:56:51.373Z,100243.46
2019-05-03T17:00:55.321Z,100226.79
2019-05-03T17:05:05.163Z,100244.77
2019-05-03T17:09:10.247Z,100243.23
2019-05-03T17:13:14.769Z,100242.30
2019-05-03T17:17:18.216Z,100243.95
2019-05-03T17:21:21.685Z,100238.95
2019-05-03T17:25:25.246Z,100232.38
2019-05-03T17:29:29.066Z,100228.77
2019-05-03T17:33:34.681Z,100223.87
2019-05-03T17:37:38.097Z,100219.55
2019-05-03T17:41:46.042Z,100213.25
2019-05-03T17:45:55.024Z,100212.44
2019-05-03T17:49:59.009Z,100215.00
2019-05-03T17:54:16.539Z,100215.70
2019-05-03T17:58:21.674Z,100205.91
2019-05-03T18:02:35.839Z,100207.20
2019-05-03T18:06:46.948Z,100203.81
2019-05-03T18:10:52.502Z,100201.61
2019-05-03T18:15:02.950Z,100195.55
2019-05-03T18:19:12.033Z,100199.50
2019-05-03T18:23:19.117Z,100197.95
2019-05-03T18:27:31.915Z,100203.45
2019-05-03T18:31:36.009Z,100216.55
2019-05-03T18:35:48.209Z,100210.65
2019-05-03T18:44:25.839Z,100211.16
2019-05-03T18:48:35.855Z,100216.97
2019-05-03T18:52:48.886Z,100220.77
2019-05-03T18:57:00.128Z,100213.06
2019-05-03T19:05:35.039Z,100215.41
2019-05-03T19:10:15.850Z,100213.48
2019-05-03T19:14:33.573Z,100206.73
2019-05-03T19:18:38.658Z,100213.63
2019-05-03T19:22:42.145Z,100220.95
2019-05-03T19:26:46.003Z,100229.92
2019-05-03T19:30:49.803Z,100228.40
2019-05-03T19:34:54.899Z,100222.73
2019-05-03T19:38:58.497Z,100224.23
2019-05-03T19:43:03.314Z,100223.79
2019-05-03T19:47:07.171Z,100228.58
2019-05-03T19:51:10.650Z,100225.36
2019-05-03T19:55:15.402Z,100218.67
2019-05-03T19:59:34.765Z,100214.91
2019-05-03T20:03:48.428Z,100217.20
2019-05-03T20:07:59.560Z,100217.56
2019-05-03T20:12:04.605Z,100207.72
2019-05-03T20:16:08.192Z,100195.73
2019-05-03T20:20:11.668Z,100200.94
2019-05-03T20:24:15.507Z,100203.39
2019-05-03T20:28:19.053Z,100208.44
2019-05-03T20:32:22.534Z,100194.09
2019-05-03T20:36:26.253Z,100205.27
2019-05-03T20:40:29.755Z,100207.81
2019-05-03T20:44:35.509Z,100211.34
2019-05-03T20:48:40.262Z,100203.45
2019-05-03T20:52:44.487Z,100203.77
2019-05-03T20:56:48.600Z,100199.53
2019-05-03T21:00:54.552Z,100211.78
2019-05-03T21:04:58.164Z,100209.93
2019-05-03T21:09:01.650Z,100204.53
2019-05-03T21:13:08.503Z,100205.88
2019-05-03T21:17:21.110Z,100199.44
2019-05-03T21:21:29.457Z,100193.80
2019-05-03T21:25:36.450Z,100193.48
2019-05-03T21:29:55.145Z,100193.12
2019-05-03T21:38:08.872Z,100199.98
2019-05-03T21:42:12.342Z,100201.62
2019-05-03T21:46:35.690Z,100210.43
2019-05-03T21:50:39.184Z,100207.23
2019-05-03T21:54:44.950Z,100207.98
2019-05-03T21:58:48.678Z,100205.88
2019-05-03T22:02:54.618Z,100200.71
2019-05-03T22:07:05.252Z,100202.83
2019-05-03T22:11:12.378Z,100199.23
2019-05-03T22:15:20.154Z,100202.97
2019-05-03T22:19:25.053Z,100200.72
2019-05-03T22:23:30.311Z,100198.95
2019-05-03T22:27:38.415Z,100198.69
2019-05-03T22:31:41.897Z,100197.00
2019-05-03T22:35:45.954Z,100194.84
2019-05-03T22:39:49.430Z,100195.44
2019-05-03T22:43:54.679Z,100189.85
2019-05-03T22:47:58.455Z,100194.41
2019-05-03T22:52:02.355Z,100213.52
2019-05-03T22:56:05.824Z,100204.09
2019-05-03T23:00:09.769Z,100216.19
2019-05-03T23:04:14.629Z,100226.09
2019-05-03T23:08:18.746Z,100216.69
2019-05-03T23:12:22.251Z,100201.62
2019-05-03T23:16:25.753Z,100195.47
2019-05-03T23:20:49.362Z,100186.73
2019-05-03T23:24:54.807Z,100175.77
2019-05-03T23:28:58.501Z,100166.55
2019-05-03T23:33:02.000Z,100160.23
2019-05-03T23:37:05.657Z,100160.23
2019-05-03T23:41:09.484Z,100161.41
2019-05-03T23:45:14.903Z,100167.30
2019-05-03T23:49:18.531Z,100163.75
2019-05-03T23:53:22.018Z,100166.66
2019-05-03T23:57:25.494Z,100169.22
